Jesupolis, Brazil
Current Conditions -  °F | °C
As of 2:00 PM on Monday 24 Nov 2014 (Local Time) from SBAN Reporting Station
Broken Clouds Broken Clouds  
Wind Chill: 77°   Ceiling: 8000
Heat Index: 79°   Visibility: 6mi
Dew Point: 63°   Wind: 6mph
Humidity: 61%   Direction: 300°WNW
Pressure: 30.09"   Gusts: NA
Location:  15.95°S, 49.37°W
Report Text: SBAN 241600Z 30005KT 9999 SCT025 FEW030TCU BKN080 25/17 Q1019
Loading
Personal Weather Stations






























Interactive Weather Map New forecast layout! Learn more

10-Day Weather Forecast

Advertisements
Track Severe Weather on mobile